Time;durP1;ratioP1;P1;durP2;ratioP2;P2;SDS_P1;SDS_P2;PMS_P1;PMS_P2;Temp;Humidity;BMP_temperature;BMP_pressure;BME280_temperature;BME280_humidity;BME280_pressure;Samples;Min_cycle;Max_cycle;Signal;HPM_P1;HPM_P2
2023/01/02 00:01:59;;;;;;;9.75;4.60;;;;;;;9.51;62.27;100995.75;6208464;23;20041;-69
2023/01/02 00:04:26;;;;;;;13.43;4.20;;;;;;;9.96;61.13;100989.63;6209662;22;20021;-68
2023/01/02 00:06:52;;;;;;;19.13;5.00;;;;;;;9.95;60.91;100993.25;6209235;23;20085;-68
2023/01/02 00:09:19;;;;;;;17.35;4.88;;;;;;;9.93;61.13;100994.44;6208483;23;20047;-70
2023/01/02 00:11:45;;;;;;;17.42;5.45;;;;;;;9.63;61.60;100987.50;6208987;23;20044;-68
2023/01/02 00:14:12;;;;;;;15.45;4.50;;;;;;;9.53;61.82;100976.84;6209932;23;20065;-70
2023/01/02 00:16:38;;;;;;;12.95;4.95;;;;;;;9.90;61.26;100962.56;6210330;23;20044;-68
2023/01/02 00:19:07;;;;;;;13.60;4.10;;;;;;;9.65;61.98;100964.13;6209663;23;20021;-67
2023/01/02 00:21:33;;;;;;;14.70;4.70;;;;;;;9.85;61.55;100960.31;6209277;23;20025;-67
2023/01/02 00:24:00;;;;;;;21.63;4.88;;;;;;;9.63;62.11;100961.56;6209147;23;20040;-67
2023/01/02 00:26:29;;;;;;;11.25;3.97;;;;;;;9.85;61.62;100971.03;6208950;23;20417;-68
2023/01/02 00:28:55;;;;;;;14.35;4.68;;;;;;;9.89;61.54;100967.09;6208202;23;20029;-68
2023/01/02 00:31:22;;;;;;;13.52;5.25;;;;;;;9.65;62.49;100961.44;6209533;23;20040;-68
2023/01/02 00:33:48;;;;;;;22.80;5.63;;;;;;;9.84;61.96;100965.84;6209591;23;20080;-68
2023/01/02 00:36:15;;;;;;;14.88;4.55;;;;;;;9.78;62.30;100970.78;6209036;23;20040;-70
2023/01/02 00:38:41;;;;;;;19.77;4.80;;;;;;;9.85;61.79;100976.41;6208579;23;20025;-70
2023/01/02 00:41:08;;;;;;;18.02;5.35;;;;;;;9.76;62.09;100961.22;6209669;23;20041;-68
2023/01/02 00:43:36;;;;;;;15.10;5.03;;;;;;;9.76;62.33;100956.72;6208708;23;20047;-68
2023/01/02 00:46:03;;;;;;;13.35;4.05;;;;;;;9.70;63.10;100953.78;6209023;23;20025;-67
2023/01/02 00:48:36;;;;;;;20.77;4.78;;;;;;;9.83;62.24;100948.91;6239054;22;20030;-68
2023/01/02 00:51:03;;;;;;;13.38;4.40;;;;;;;9.84;62.25;100949.75;6239653;23;20032;-67
2023/01/02 00:53:29;;;;;;;17.27;5.05;;;;;;;9.71;63.06;100948.25;6239323;23;20024;-67
2023/01/02 00:55:56;;;;;;;19.15;4.70;;;;;;;10.06;61.66;100957.38;6240015;23;20028;-67
2023/01/02 00:58:22;;;;;;;16.48;4.78;;;;;;;9.98;61.64;100962.66;6227083;23;20012;-67
2023/01/02 01:00:49;;;;;;;15.13;4.90;;;;;;;10.17;61.13;100954.50;6262477;23;20035;-67
2023/01/02 01:03:16;;;;;;;17.45;4.68;;;;;;;9.98;61.54;100950.09;6239386;23;20043;-69
2023/01/02 01:05:43;;;;;;;16.15;3.97;;;;;;;10.14;61.45;100945.91;6240298;23;20052;-67
2023/01/02 01:08:09;;;;;;;17.65;4.28;;;;;;;10.10;61.65;100957.91;6240095;23;20020;-67
2023/01/02 01:10:36;;;;;;;12.02;4.93;;;;;;;10.14;61.36;100951.28;6239280;23;20024;-68
2023/01/02 01:13:04;;;;;;;17.88;5.07;;;;;;;9.86;62.03;100945.94;6239552;23;20056;-68
2023/01/02 01:15:32;;;;;;;17.45;5.15;;;;;;;9.92;62.16;100945.31;6238824;22;20047;-67
2023/01/02 01:17:59;;;;;;;13.82;4.57;;;;;;;9.93;62.01;100939.00;6239684;22;20070;-67
2023/01/02 01:20:25;;;;;;;13.70;4.70;;;;;;;9.71;62.57;100928.66;6239605;22;20030;-67
2023/01/02 01:22:52;;;;;;;19.38;4.68;;;;;;;9.64;62.89;100930.25;6239701;23;20029;-69
2023/01/02 01:25:19;;;;;;;10.63;4.20;;;;;;;9.62;62.73;100921.53;6239584;22;20020;-68
2023/01/02 01:27:46;;;;;;;13.23;4.85;;;;;;;9.71;62.84;100917.94;6239313;23;20017;-68
2023/01/02 01:30:13;;;;;;;15.32;4.60;;;;;;;9.83;62.46;100914.09;6238971;23;20024;-68
2023/01/02 01:32:39;;;;;;;17.73;4.65;;;;;;;9.80;62.67;100919.75;6239749;23;20032;-68
2023/01/02 01:35:06;;;;;;;23.08;4.40;;;;;;;9.45;63.41;100907.13;6239878;23;20048;-68
2023/01/02 01:37:33;;;;;;;14.02;4.55;;;;;;;9.66;63.13;100910.38;6239408;23;20024;-68
2023/01/02 01:39:59;;;;;;;22.95;5.32;;;;;;;9.92;62.45;100909.66;6239395;23;20055;-68
2023/01/02 01:42:31;;;;;;;12.20;4.50;;;;;;;9.60;62.85;100918.16;6239762;23;20025;-68
2023/01/02 01:44:58;;;;;;;17.85;4.53;;;;;;;9.69;62.97;100907.41;6239669;23;20009;-69
2023/01/02 01:47:27;;;;;;;24.02;4.80;;;;;;;9.64;62.64;100906.16;6238733;23;20032;-68
2023/01/02 01:50:07;;;;;;;19.30;4.90;;;;;;;9.77;62.23;100895.94;6237493;23;20035;-69
2023/01/02 01:52:39;;;;;;;12.98;4.45;;;;;;;9.61;62.83;100888.53;6238374;23;20021;-69
2023/01/02 01:55:14;;;;;;;9.40;3.97;;;;;;;9.83;62.03;100887.28;6238642;23;20032;-68
2023/01/02 01:57:54;;;;;;;14.68;3.75;;;;;;;9.80;61.69;100879.56;6238930;23;20036;-68
2023/01/02 02:00:20;;;;;;;16.52;3.85;;;;;;;9.84;61.77;100883.59;6238809;22;20036;-67
2023/01/02 02:02:50;;;;;;;13.52;4.18;;;;;;;9.85;61.78;100873.72;6238767;23;20044;-68
2023/01/02 02:09:13;;;;;;;14.68;3.60;;;;;;;9.64;61.75;100872.16;6237998;23;20059;-67
2023/01/02 02:11:40;;;;;;;14.48;3.83;;;;;;;9.70;61.92;100863.53;6239432;23;20027;-68
2023/01/02 02:14:06;;;;;;;19.00;3.92;;;;;;;9.73;61.70;100865.06;6239550;23;20054;-67
2023/01/02 02:16:39;;;;;;;16.88;4.35;;;;;;;9.83;61.28;100849.78;6239277;23;20025;-69
2023/01/02 02:19:33;;;;;;;16.55;4.60;;;;;;;9.78;61.27;100857.41;6239177;23;20064;-68
2023/01/02 02:22:25;;;;;;;18.08;4.55;;;;;;;9.85;60.73;100844.25;6238421;23;20029;-68
2023/01/02 02:25:16;;;;;;;14.98;4.28;;;;;;;9.82;60.94;100831.16;6239697;23;20024;-69
2023/01/02 02:28:07;;;;;;;13.18;3.70;;;;;;;9.90;60.46;100826.72;6238119;23;20013;-68
2023/01/02 02:30:54;;;;;;;9.80;3.42;;;;;;;9.99;60.10;100811.56;6238595;23;20025;-68
2023/01/02 02:33:35;;;;;;;18.70;4.60;;;;;;;10.01;60.01;100810.41;6237859;23;20039;-70
2023/01/02 02:36:17;;;;;;;9.35;4.15;;;;;;;9.99;59.93;100815.09;6208659;23;20033;-68
2023/01/02 02:38:58;;;;;;;15.43;4.43;;;;;;;10.02;59.55;100811.25;6209460;23;20040;-68
2023/01/02 02:41:30;;;;;;;15.10;3.97;;;;;;;10.18;59.14;100799.81;6208827;23;20037;-68
2023/01/02 02:44:34;;;;;;;9.35;4.15;;;;;;;9.91;59.78;100809.66;6208830;23;20300;-69
2023/01/02 02:47:19;;;;;;;11.25;4.22;;;;;;;10.11;59.49;100804.13;6208520;23;20056;-68
2023/01/02 02:50:02;;;;;;;12.60;4.47;;;;;;;10.04;59.37;100804.75;6209024;23;20024;-69
2023/01/02 02:52:34;;;;;;;21.20;4.63;;;;;;;9.95;59.75;100813.69;6210894;23;20024;-69
2023/01/02 02:55:11;;;;;;;14.63;4.03;;;;;;;9.97;59.37;100801.00;6211230;23;20048;-69
2023/01/02 02:57:39;;;;;;;12.95;4.55;;;;;;;10.10;59.08;100800.63;6211116;22;20032;-69
2023/01/02 03:00:08;;;;;;;11.77;4.20;;;;;;;10.16;58.89;100786.56;6210690;23;20035;-68
2023/01/02 03:02:36;;;;;;;16.38;4.40;;;;;;;10.14;58.90;100790.41;6210553;23;20040;-68
2023/01/02 03:05:08;;;;;;;16.42;4.75;;;;;;;10.21;58.91;100794.16;6210588;23;20025;-69
2023/01/02 03:07:45;;;;;;;14.80;4.57;;;;;;;10.05;58.94;100784.13;6210604;23;20044;-69
2023/01/02 03:10:24;;;;;;;17.13;4.47;;;;;;;10.03;58.71;100781.63;6210154;23;20369;-69
2023/01/02 03:13:20;;;;;;;10.52;4.00;;;;;;;10.11;58.75;100778.16;6210689;23;20025;-70
2023/01/02 03:15:56;;;;;;;13.18;4.20;;;;;;;10.17;58.59;100774.88;6196291;23;20029;-72
2023/01/02 03:18:33;;;;;;;12.80;4.05;;;;;;;10.27;58.07;100782.81;6196366;23;20327;-72
2023/01/02 03:21:09;;;;;;;10.38;4.15;;;;;;;10.02;58.49;100782.59;6199233;23;20100;-72
2023/01/02 03:23:42;;;;;;;13.30;4.30;;;;;;;10.01;58.73;100772.88;6198179;23;20099;-72
2023/01/02 03:26:10;;;;;;;12.70;4.88;;;;;;;10.08;58.43;100789.19;6200698;23;20025;-72
2023/01/02 03:28:41;;;;;;;10.90;4.28;;;;;;;10.33;57.95;100782.16;6197303;23;20107;-72
2023/01/02 03:31:14;;;;;;;11.55;4.18;;;;;;;10.37;57.48;100785.38;6200688;23;20108;-72
2023/01/02 03:33:49;;;;;;;13.05;4.40;;;;;;;10.24;57.80;100777.75;6196680;23;20383;-72
2023/01/02 03:36:21;;;;;;;15.45;3.97;;;;;;;10.47;57.17;100760.13;6213822;23;20023;-72
2023/01/02 03:38:59;;;;;;;11.30;4.40;;;;;;;10.36;57.14;100767.59;6214366;23;20024;-72
2023/01/02 03:41:36;;;;;;;9.23;4.47;;;;;;;10.33;57.28;100771.44;6213636;23;20480;-71
2023/01/02 03:44:06;;;;;;;13.38;4.25;;;;;;;10.49;56.80;100766.19;6214265;23;20100;-72
2023/01/02 03:47:01;;;;;;;11.00;4.22;;;;;;;10.56;56.70;100760.22;6213952;23;20118;-72
2023/01/02 03:49:36;;;;;;;12.15;4.40;;;;;;;10.50;56.25;100762.53;6213541;23;20016;-72
2023/01/02 03:52:02;;;;;;;8.70;4.07;;;;;;;10.46;56.58;100761.13;6214445;23;20048;-72
2023/01/02 03:54:29;;;;;;;12.68;4.43;;;;;;;10.45;56.74;100764.81;6213914;23;20104;-72
2023/01/02 03:56:58;;;;;;;9.30;4.22;;;;;;;10.55;56.23;100769.25;6214258;23;20542;-72
2023/01/02 03:59:43;;;;;;;11.15;4.97;;;;;;;10.47;56.45;100761.97;6214578;23;20021;-71
2023/01/02 04:02:28;;;;;;;10.80;4.30;;;;;;;10.47;56.13;100757.44;6214269;23;20106;-72
2023/01/02 04:05:05;;;;;;;9.13;4.53;;;;;;;10.63;55.82;100753.22;6214154;23;20100;-72
2023/01/02 04:08:20;;;;;;;8.65;4.30;;;;;;;10.60;56.05;100751.69;6214275;23;20020;-72
2023/01/02 04:10:50;;;;;;;12.73;4.63;;;;;;;10.63;55.55;100745.16;6123553;23;20029;-72
2023/01/02 04:13:52;;;;;;;10.85;4.90;;;;;;;10.67;55.46;100751.91;6212207;23;20023;-71
2023/01/02 04:16:23;;;;;;;16.85;4.25;;;;;;;10.76;55.27;100750.09;6211117;23;20100;-72
2023/01/02 04:18:55;;;;;;;17.03;4.63;;;;;;;10.77;55.19;100746.41;6213294;23;20041;-72
2023/01/02 04:21:28;;;;;;;9.43;4.53;;;;;;;10.65;55.25;100744.03;6213738;23;20027;-71
2023/01/02 04:24:00;;;;;;;12.07;4.82;;;;;;;10.62;55.41;100746.19;6214067;23;20024;-72
2023/01/02 04:26:55;;;;;;;11.40;4.65;;;;;;;10.85;54.81;100757.16;6214035;23;20017;-72
2023/01/02 04:29:21;;;;;;;14.15;4.18;;;;;;;10.68;55.36;100753.56;6205171;23;20042;-71
2023/01/02 04:31:55;;;;;;;10.43;4.68;;;;;;;10.62;55.28;100744.34;6214654;23;20044;-71
2023/01/02 04:34:24;;;;;;;10.00;5.00;;;;;;;10.64;55.33;100741.47;6213508;23;20096;-69
2023/01/02 04:36:50;;;;;;;11.73;5.00;;;;;;;10.77;54.93;100736.50;6213495;23;20033;-71
2023/01/02 04:39:20;;;;;;;7.07;4.43;;;;;;;10.72;55.25;100733.47;6213509;23;20520;-72
2023/01/02 04:41:46;;;;;;;7.72;4.47;;;;;;;10.72;55.19;100739.69;6213290;23;20017;-73
2023/01/02 04:44:13;;;;;;;14.52;5.10;;;;;;;10.77;54.87;100731.16;6213704;23;20026;-71
2023/01/02 04:46:39;;;;;;;7.32;4.00;;;;;;;10.74;54.75;100732.31;6213962;23;20357;-72
2023/01/02 04:49:06;;;;;;;9.50;4.45;;;;;;;10.89;54.56;100732.53;6213157;23;20032;-72
2023/01/02 04:51:32;;;;;;;11.75;4.82;;;;;;;10.70;54.76;100743.53;6213743;23;20052;-71
2023/01/02 04:53:59;;;;;;;11.68;4.93;;;;;;;10.77;54.56;100738.38;6213787;23;20051;-71
2023/01/02 04:56:25;;;;;;;10.75;4.78;;;;;;;10.78;54.65;100732.81;6213605;23;20021;-71
2023/01/02 04:58:52;;;;;;;11.95;4.82;;;;;;;10.69;54.77;100739.19;6214432;23;20027;-71
2023/01/02 05:01:20;;;;;;;8.63;4.63;;;;;;;10.81;54.50;100737.03;6213379;23;20021;-71
2023/01/02 05:03:48;;;;;;;8.15;4.43;;;;;;;10.61;54.75;100731.91;6213400;23;20043;-71
2023/01/02 05:06:15;;;;;;;9.05;4.45;;;;;;;10.86;54.13;100732.88;6213785;23;20028;-71
2023/01/02 05:08:41;;;;;;;9.85;4.85;;;;;;;10.84;54.36;100726.81;6213306;23;20016;-72
2023/01/02 05:11:11;;;;;;;9.57;4.55;;;;;;;10.88;54.25;100738.06;6213573;23;20091;-71
2023/01/02 05:13:37;;;;;;;11.40;5.45;;;;;;;10.81;54.24;100743.22;6213230;23;20365;-72
2023/01/02 05:16:04;;;;;;;11.35;4.53;;;;;;;10.93;54.15;100733.06;6213396;23;20027;-71
2023/01/02 05:18:31;;;;;;;11.15;4.53;;;;;;;10.91;54.04;100738.59;6213349;23;20075;-71
2023/01/02 05:24:02;;;;;;;8.38;4.40;;;;;;;10.91;53.82;100749.31;6212703;23;20457;-71
2023/01/02 05:26:32;;;;;;;12.88;4.40;;;;;;;10.96;53.82;100744.31;6213440;23;20043;-70
2023/01/02 05:28:59;;;;;;;10.25;4.38;;;;;;;10.85;53.99;100743.75;6212586;23;20353;-70
2023/01/02 05:31:26;;;;;;;10.13;4.60;;;;;;;10.88;53.87;100738.91;6213624;23;20027;-71
2023/01/02 05:33:55;;;;;;;12.75;4.80;;;;;;;10.87;53.87;100731.03;6212903;23;20020;-72
2023/01/02 05:36:22;;;;;;;7.72;4.75;;;;;;;10.65;54.23;100732.41;6213023;23;20020;-72
2023/01/02 05:38:49;;;;;;;11.23;3.92;;;;;;;10.71;54.07;100731.78;6213147;23;20031;-71
2023/01/02 05:41:16;;;;;;;8.75;3.80;;;;;;;10.78;53.99;100721.25;6212928;23;20052;-72
2023/01/02 05:43:42;;;;;;;10.50;4.10;;;;;;;10.78;54.04;100727.44;6212947;23;20097;-72
2023/01/02 05:46:19;;;;;;;8.65;3.95;;;;;;;10.87;53.89;100723.81;6212857;23;20027;-71
2023/01/02 05:48:46;;;;;;;10.20;4.70;;;;;;;10.91;53.69;100721.63;6212865;23;20029;-72
2023/01/02 05:51:15;;;;;;;11.15;4.32;;;;;;;10.92;53.53;100718.78;6212328;23;20091;-71
2023/01/02 05:53:42;;;;;;;8.23;3.88;;;;;;;10.72;53.94;100717.34;6213165;23;20032;-72
2023/01/02 05:56:11;;;;;;;10.48;4.40;;;;;;;10.91;53.35;100717.09;6212934;23;20349;-72
2023/01/02 05:58:40;;;;;;;11.10;4.13;;;;;;;10.86;53.23;100730.19;6213043;23;20099;-72
2023/01/02 06:01:15;;;;;;;8.93;3.85;;;;;;;10.94;53.15;100722.16;6212625;23;20522;-71
2023/01/02 06:03:49;;;;;;;7.13;4.22;;;;;;;10.93;53.01;100728.53;6213002;23;20047;-71
2023/01/02 06:06:17;;;;;;;12.10;3.72;;;;;;;10.94;53.13;100716.78;6212684;23;20020;-72
2023/01/02 06:08:44;;;;;;;9.10;3.35;;;;;;;11.04;52.75;100722.03;6212790;23;20028;-71
2023/01/02 06:11:11;;;;;;;8.85;4.45;;;;;;;11.01;52.90;100714.28;6213209;23;20453;-71
2023/01/02 06:13:38;;;;;;;8.13;3.70;;;;;;;11.04;52.66;100718.50;6212857;23;20027;-71
2023/01/02 06:16:06;;;;;;;8.55;3.80;;;;;;;11.01;52.77;100722.34;6212621;23;20453;-71
2023/01/02 06:18:35;;;;;;;11.27;3.90;;;;;;;10.99;52.70;100725.19;6212876;23;20115;-71
2023/01/02 06:21:04;;;;;;;14.55;3.60;;;;;;;11.06;52.68;100721.84;6212424;23;20027;-71
2023/01/02 06:23:31;;;;;;;8.88;3.97;;;;;;;11.15;52.42;100729.78;6211970;23;20096;-72
2023/01/02 06:26:03;;;;;;;10.13;4.10;;;;;;;11.01;52.71;100727.72;6213224;23;20036;-70
2023/01/02 06:28:29;;;;;;;;;;;;;;;11.08;52.64;100728.75;6212360;23;20444;-71
2023/01/02 06:31:07;;;;;;;9.32;3.83;;;;;;;10.95;52.81;100723.81;6211963;23;19994;-71
2023/01/02 06:33:33;;;;;;;7.28;3.78;;;;;;;11.00;52.51;100726.03;6212035;23;20024;-71
2023/01/02 06:36:03;;;;;;;10.98;4.18;;;;;;;11.14;52.29;100732.63;6211900;23;20063;-71
2023/01/02 06:38:29;;;;;;;9.23;3.80;;;;;;;11.12;52.33;100734.63;6209404;23;20035;-72
2023/01/02 06:40:58;;;;;;;10.05;3.95;;;;;;;11.01;52.49;100734.94;6211404;23;20051;-71
2023/01/02 06:43:26;;;;;;;14.02;3.97;;;;;;;11.16;52.29;100734.13;6211259;23;20184;-71
2023/01/02 06:45:56;;;;;;;10.48;4.00;;;;;;;11.18;52.00;100729.44;6211806;23;20025;-71
2023/01/02 06:48:23;;;;;;;10.80;3.53;;;;;;;11.10;52.23;100732.13;6199587;23;20027;-73
2023/01/02 06:50:50;;;;;;;6.45;3.35;;;;;;;11.20;52.00;100732.78;6212426;23;20090;-72
2023/01/02 06:53:16;;;;;;;7.20;3.50;;;;;;;10.94;52.36;100735.56;6211482;23;20024;-72
2023/01/02 06:55:53;;;;;;;8.15;4.60;;;;;;;11.21;52.05;100741.72;6212336;23;20019;-72
2023/01/02 06:58:20;;;;;;;15.32;5.55;;;;;;;11.07;52.05;100740.50;6212385;23;20017;-72
2023/01/02 07:00:48;;;;;;;9.00;3.92;;;;;;;11.22;51.88;100741.53;6212102;23;20020;-72
2023/01/02 07:03:15;;;;;;;12.07;5.50;;;;;;;11.16;52.01;100747.56;6211566;23;20024;-72
2023/01/02 07:05:42;;;;;;;10.90;5.07;;;;;;;11.09;52.07;100735.78;6212314;23;20043;-72
2023/01/02 07:08:10;;;;;;;14.90;5.28;;;;;;;11.22;52.01;100736.16;6211588;23;20032;-72
2023/01/02 07:10:37;;;;;;;27.65;6.78;;;;;;;11.34;51.69;100743.91;6212267;23;20081;-72
2023/01/02 07:13:03;;;;;;;10.38;4.22;;;;;;;11.20;51.98;100748.91;6212636;23;20096;-73
2023/01/02 07:15:31;;;;;;;16.58;5.80;;;;;;;11.29;51.76;100748.94;6212780;23;20403;-72
2023/01/02 07:17:57;;;;;;;11.93;3.95;;;;;;;11.19;52.06;100765.19;6210499;23;20509;-72
2023/01/02 07:20:24;;;;;;;10.60;4.10;;;;;;;11.13;52.10;100769.34;6211385;23;20141;-72
2023/01/02 07:22:52;;;;;;;10.60;3.85;;;;;;;11.17;51.94;100761.81;6212629;23;20031;-72
2023/01/02 07:25:20;;;;;;;7.45;3.83;;;;;;;11.25;51.78;100761.84;6212623;23;20024;-72
2023/01/02 07:27:47;;;;;;;11.18;3.08;;;;;;;11.08;51.89;100749.38;6212497;23;20462;-72
2023/01/02 07:30:14;;;;;;;9.15;3.10;;;;;;;11.22;51.76;100759.50;6211567;23;20092;-72
2023/01/02 07:32:42;;;;;;;11.35;3.53;;;;;;;11.15;51.74;100758.47;6212313;23;20302;-72
2023/01/02 07:35:09;;;;;;;8.68;3.45;;;;;;;11.18;51.79;100747.41;6210415;23;20025;-71
2023/01/02 07:37:36;;;;;;;10.32;3.13;;;;;;;11.19;51.69;100757.97;6213111;23;20044;-72
2023/01/02 07:40:03;;;;;;;13.30;3.60;;;;;;;11.24;51.85;100762.88;6214684;23;20100;-72
2023/01/02 07:42:30;;;;;;;9.40;3.22;;;;;;;11.22;51.60;100771.06;6213447;23;20020;-72
2023/01/02 07:44:56;;;;;;;9.27;3.67;;;;;;;11.20;51.89;100769.53;6213375;23;20024;-72
2023/01/02 07:47:23;;;;;;;12.57;3.83;;;;;;;11.37;51.50;100763.22;6213721;23;20450;-72
2023/01/02 07:49:49;;;;;;;8.50;3.35;;;;;;;11.23;51.63;100774.59;6212777;23;20025;-72
2023/01/02 07:52:16;;;;;;;9.70;2.78;;;;;;;11.26;51.55;100774.28;6211819;23;20434;-72
2023/01/02 07:54:42;;;;;;;9.32;3.50;;;;;;;11.30;51.24;100775.63;6212575;23;20024;-73
2023/01/02 07:57:08;;;;;;;7.20;3.00;;;;;;;11.23;51.33;100774.59;6213084;23;20052;-71
2023/01/02 07:59:35;;;;;;;18.45;6.18;;;;;;;11.37;51.31;100781.19;6213020;23;20112;-74
2023/01/02 08:02:01;;;;;;;15.00;4.93;;;;;;;11.36;51.17;100783.03;6214010;23;20099;-74
2023/01/02 08:04:28;;;;;;;11.95;4.30;;;;;;;11.32;51.17;100780.84;6214081;23;20047;-74
2023/01/02 08:06:55;;;;;;;10.25;4.35;;;;;;;11.51;50.79;100780.53;6214242;23;20100;-73
2023/01/02 08:09:21;;;;;;;10.43;4.63;;;;;;;11.63;50.46;100779.22;6213610;23;20020;-73
2023/01/02 08:11:48;;;;;;;7.18;4.05;;;;;;;11.37;50.95;100782.00;6213525;23;20024;-74
2023/01/02 08:14:14;;;;;;;11.30;4.40;;;;;;;11.43;50.79;100786.75;6213047;23;20052;-73
2023/01/02 08:16:48;;;;;;;11.13;3.80;;;;;;;11.56;50.53;100780.06;6213302;23;20520;-73
2023/01/02 08:19:15;;;;;;;10.52;3.85;;;;;;;11.70;50.25;100776.75;6213894;23;20016;-73
2023/01/02 08:21:41;;;;;;;9.55;3.58;;;;;;;11.45;50.68;100776.69;6212731;23;20346;-73
2023/01/02 08:24:08;;;;;;;13.55;3.97;;;;;;;11.47;50.50;100781.88;6211969;23;20066;-73
2023/01/02 08:26:34;;;;;;;12.65;4.47;;;;;;;11.56;50.35;100775.53;6213384;23;20027;-73
2023/01/02 08:29:01;;;;;;;12.90;3.70;;;;;;;11.57;50.39;100789.78;6214422;23;20026;-73
2023/01/02 08:31:28;;;;;;;7.13;3.47;;;;;;;11.57;50.21;100777.19;6213130;23;20032;-73
2023/01/02 08:33:54;;;;;;;8.93;3.83;;;;;;;11.44;50.23;100782.19;6213674;23;20462;-73
2023/01/02 08:36:21;;;;;;;12.05;3.63;;;;;;;11.58;50.01;100788.78;6211727;23;20024;-73
2023/01/02 08:38:47;;;;;;;8.93;3.65;;;;;;;11.53;50.07;100781.22;6213996;23;20362;-73
2023/01/02 08:41:14;;;;;;;8.35;3.40;;;;;;;11.61;49.84;100778.53;6212583;23;20016;-74
2023/01/02 08:43:40;;;;;;;9.10;3.40;;;;;;;11.51;49.76;100775.16;6199367;23;20020;-73
2023/01/02 08:46:08;;;;;;;7.95;2.83;;;;;;;11.70;49.41;100782.13;6234983;23;20107;-74
2023/01/02 08:48:36;;;;;;;11.45;3.15;;;;;;;11.54;49.79;100788.28;6212520;23;20024;-74
2023/01/02 08:51:03;;;;;;;15.82;3.53;;;;;;;11.72;49.49;100790.84;6210032;23;20024;-74
2023/01/02 08:53:30;;;;;;;9.70;3.10;;;;;;;11.75;48.88;100790.50;6210404;23;20458;-74
2023/01/02 08:56:19;;;;;;;6.85;3.40;;;;;;;11.68;49.38;100794.88;6211145;23;20025;-73
2023/01/02 08:58:54;;;;;;;9.57;2.70;;;;;;;11.78;49.04;100794.72;6212178;23;20469;-73
2023/01/02 09:01:23;;;;;;;8.05;2.75;;;;;;;11.89;48.90;100797.91;6212844;23;20021;-73
2023/01/02 09:03:51;;;;;;;8.15;2.83;;;;;;;11.73;49.00;100786.34;6209948;23;20533;-73
2023/01/02 09:06:19;;;;;;;8.18;3.28;;;;;;;11.73;48.90;100797.09;6208639;23;20103;-73
2023/01/02 09:08:48;;;;;;;10.15;3.42;;;;;;;11.87;49.01;100804.50;6211248;23;20028;-74
2023/01/02 09:11:18;;;;;;;8.48;2.88;;;;;;;11.76;49.07;100807.47;6229721;22;20023;-73
2023/01/02 09:24:25;;;;;;;10.25;3.17;;;;;;;11.91;48.73;100798.59;6214613;22;1293565;-74
2023/01/02 09:30:13;;;;;;;5.57;2.80;;;;;;;11.92;48.52;100811.03;6214503;22;20019;31
2023/01/02 09:41:20;;;;;;;8.27;2.97;;;;;;;12.20;47.52;100802.63;6264405;22;20011;-72
2023/01/02 09:44:21;;;;;;;10.35;3.33;;;;;;;12.17;47.64;100809.22;6227483;22;20032;-73
2023/01/02 09:47:28;;;;;;;6.63;2.30;;;;;;;12.26;47.37;100798.44;6235693;22;20028;-71
2023/01/02 10:09:44;;;;;;;16.65;3.50;;;;;;;12.57;46.23;100779.72;6161626;22;20324;31
2023/01/02 10:46:36;;;;;;;8.95;2.90;;;;;;;12.67;45.74;100740.00;6184240;22;20020;-71
2023/01/02 10:49:03;;;;;;;6.78;2.80;;;;;;;12.47;46.36;100741.41;6233784;23;20080;-71
2023/01/02 10:54:08;;;;;;;12.10;3.10;;;;;;;12.36;46.35;100740.75;6234578;22;20010;-70
2023/01/02 10:56:38;;;;;;;12.23;2.83;;;;;;;12.59;46.17;100737.31;6220087;22;21289;31
2023/01/02 10:59:42;;;;;;;12.93;2.75;;;;;;;12.65;45.89;100728.56;6181560;23;20057;-71
2023/01/02 11:02:25;;;;;;;9.43;2.80;;;;;;;12.79;45.67;100738.63;6162043;23;20016;-72
2023/01/02 11:04:52;;;;;;;9.70;2.55;;;;;;;12.62;45.94;100734.28;6240694;22;20012;-71
2023/01/02 11:48:36;;;;;;;13.48;3.40;;;;;;;12.59;48.79;100734.63;6228274;22;20000;-73
2023/01/02 12:14:21;;;;;;;9.60;3.22;;;;;;;12.43;49.12;100735.53;6272183;23;20015;-72
2023/01/02 12:27:56;;;;;;;14.57;3.00;;;;;;;12.26;49.00;100734.72;6224968;22;20008;-71
2023/01/02 12:35:48;;;;;;;10.43;3.00;;;;;;;12.10;49.36;100750.88;6269096;22;20024;-74
2023/01/02 12:38:25;;;;;;;11.80;3.55;;;;;;;12.20;49.50;100748.00;6272632;23;20012;-73
2023/01/02 12:41:24;;;;;;;12.95;3.05;;;;;;;12.21;48.83;100742.47;6249510;22;20005;-72
2023/01/02 14:08:15;;;;;;;18.05;2.80;;;;;;;12.11;49.85;100782.16;6206181;22;20299;31
2023/01/02 14:22:59;;;;;;;9.75;3.03;;;;;;;12.07;49.81;100789.72;6179487;22;20274;31
2023/01/02 14:54:47;;;;;;;9.82;2.63;;;;;;;12.17;49.47;100822.66;6231259;22;20020;-73
2023/01/02 14:57:30;;;;;;;13.10;2.75;;;;;;;12.50;48.83;100824.47;6269808;22;20067;-71
2023/01/02 15:48:33;;;;;;;6.53;1.40;;;;;;;12.01;50.91;100943.66;6225857;22;20004;-73
2023/01/02 18:30:17;;;;;;;1.60;0.52;;;;;;;9.92;55.14;101122.19;6219248;22;20051;-73
2023/01/02 18:32:45;;;;;;;0.80;0.50;;;;;;;9.86;55.00;101138.06;6233268;23;20084;-73
2023/01/02 18:35:32;;;;;;;2.00;1.15;;;;;;;9.99;55.01;101138.53;6233597;23;20037;-73
2023/01/02 18:38:35;;;;;;;0.80;0.60;;;;;;;9.89;55.01;101148.44;6233944;23;20024;-74
2023/01/02 18:41:23;;;;;;;2.45;1.20;;;;;;;9.83;54.97;101162.44;6235623;23;20020;-73
2023/01/02 18:43:53;;;;;;;0.95;0.63;;;;;;;9.59;55.48;101163.75;6235039;23;20033;-73
2023/01/02 18:46:28;;;;;;;1.90;0.90;;;;;;;9.86;54.63;101167.53;6232652;23;20028;-72
2023/01/02 18:49:28;;;;;;;1.00;0.77;;;;;;;10.00;54.30;101170.59;6234109;23;20020;-74
2023/01/02 18:52:09;;;;;;;1.80;0.70;;;;;;;9.99;54.34;101176.94;6234318;23;20081;-74
2023/01/02 18:54:41;;;;;;;1.33;1.05;;;;;;;9.81;54.71;101184.00;6234716;23;20028;-74
2023/01/02 18:57:14;;;;;;;6.25;1.45;;;;;;;10.06;54.04;101179.03;6234771;23;20023;-74
2023/01/02 18:59:48;;;;;;;3.22;1.65;;;;;;;9.70;55.05;101181.50;6222034;23;20073;-73
2023/01/02 19:02:29;;;;;;;2.78;1.60;;;;;;;9.76;55.14;101178.25;6235352;23;20021;-73
2023/01/02 19:04:56;;;;;;;2.58;1.10;;;;;;;9.94;54.81;101189.91;6228397;23;20047;-71
2023/01/02 19:07:29;;;;;;;4.63;1.00;;;;;;;10.00;54.91;101189.34;6233552;23;20190;-72
2023/01/02 19:10:34;;;;;;;2.75;1.00;;;;;;;9.96;55.00;101190.63;6233059;23;20025;-71
2023/01/02 19:13:11;;;;;;;2.80;0.80;;;;;;;9.93;55.72;101195.44;6252234;23;20069;-71
2023/01/02 19:15:58;;;;;;;4.78;1.10;;;;;;;9.80;56.13;101198.41;6263026;23;20036;-71
2023/01/02 19:18:44;;;;;;;2.53;1.10;;;;;;;9.65;56.73;101206.06;6260898;23;20031;-70
2023/01/02 19:21:17;;;;;;;2.08;0.70;;;;;;;9.60;56.73;101212.81;6259899;23;20071;-70
2023/01/02 19:23:53;;;;;;;2.53;1.00;;;;;;;9.58;56.76;101215.66;6264098;23;20036;-72
2023/01/02 19:26:28;;;;;;;1.58;0.88;;;;;;;9.65;57.12;101216.78;6263913;23;20023;-72
2023/01/02 19:28:58;;;;;;;1.40;0.90;;;;;;;9.63;56.95;101204.50;6262370;23;20043;-72
2023/01/02 19:31:34;;;;;;;1.30;0.98;;;;;;;9.73;56.73;101218.72;6291548;22;20076;-72
2023/01/02 19:34:02;;;;;;;1.45;0.90;;;;;;;9.44;57.37;101219.59;6293666;22;20031;-72
2023/01/02 19:36:35;;;;;;;1.33;0.60;;;;;;;9.54;57.19;101219.56;6293755;22;20030;-72
2023/01/02 19:39:25;;;;;;;2.78;0.88;;;;;;;9.35;57.44;101227.63;6292454;22;20016;-71
2023/01/02 19:44:37;;;;;;;1.35;0.80;;;;;;;9.57;57.16;101246.91;6290646;22;20042;-72
2023/01/02 19:47:04;;;;;;;1.50;0.80;;;;;;;9.42;57.64;101237.63;6293809;22;20048;-71
2023/01/02 19:49:31;;;;;;;0.75;0.70;;;;;;;9.37;57.90;101234.53;6295425;22;20019;-72
2023/01/02 19:51:57;;;;;;;1.02;0.77;;;;;;;9.55;57.52;101245.38;6294309;22;20075;-72
2023/01/02 19:54:24;;;;;;;1.08;0.63;;;;;;;9.38;58.38;101248.75;6294215;22;20028;-71
2023/01/02 19:56:50;;;;;;;3.78;0.80;;;;;;;9.53;57.73;101248.19;6294368;22;20036;-72
2023/01/02 19:59:17;;;;;;;1.88;0.85;;;;;;;9.35;58.45;101252.56;6294483;22;20028;-71
2023/01/02 20:01:43;;;;;;;2.42;1.00;;;;;;;9.38;58.12;101254.97;6292501;22;20031;-71
2023/01/02 20:04:10;;;;;;;4.47;0.80;;;;;;;9.16;58.16;101258.72;6292481;22;20016;-71
2023/01/02 20:06:36;;;;;;;1.67;1.10;;;;;;;9.29;57.93;101253.09;6293461;22;20030;-71
2023/01/02 20:09:03;;;;;;;0.98;0.57;;;;;;;9.08;58.57;101258.53;6293444;22;20079;-71